Time;durP1;ratioP1;P1;durP2;ratioP2;P2;SDS_P1;SDS_P2;PMS_P1;PMS_P2;Temp;Humidity;BMP_temperature;BMP_pressure;BME280_temperature;BME280_humidity;BME280_pressure;Samples;Min_cycle;Max_cycle;Signal;HPM_P1;HPM_P2
2023/03/13 00:00:56;;;;;;;17.57;5.67;;;9.20;99.90;;;;;;5076528;28;20464;-61
2023/03/13 00:03:24;;;;;;;13.83;4.73;;;9.20;99.90;;;;;;5075755;28;20479;-61
2023/03/13 00:05:55;;;;;;;12.83;5.90;;;9.30;99.90;;;;;;5075416;28;20457;-61
2023/03/13 00:08:22;;;;;;;18.60;4.77;;;9.20;99.90;;;;;;5075893;28;20489;-61
2023/03/13 00:10:49;;;;;;;13.03;4.63;;;9.30;99.90;;;;;;5075922;28;20559;-61
2023/03/13 00:13:16;;;;;;;15.03;5.30;;;9.30;99.90;;;;;;5075816;28;20810;-61
2023/03/13 00:15:43;;;;;;;15.00;4.23;;;9.30;99.90;;;;;;5075887;28;20466;-61
2023/03/13 00:18:11;;;;;;;21.17;6.53;;;9.30;99.90;;;;;;5075574;28;20481;-60
2023/03/13 00:20:38;;;;;;;15.73;4.60;;;9.30;99.90;;;;;;5075868;28;20457;-61
2023/03/13 00:23:05;;;;;;;14.50;4.73;;;9.30;99.90;;;;;;5075365;28;20461;-60
2023/03/13 00:25:32;;;;;;;16.77;4.83;;;9.30;99.90;;;;;;5076014;28;20465;-61
2023/03/13 00:27:59;;;;;;;15.80;5.90;;;9.30;99.90;;;;;;5075946;28;20500;-61
2023/03/13 00:30:27;;;;;;;18.40;5.40;;;9.40;99.90;;;;;;5075727;28;20572;-63
2023/03/13 00:32:54;;;;;;;15.37;4.90;;;9.40;99.90;;;;;;5075078;28;20467;-61
2023/03/13 00:35:22;;;;;;;24.50;5.23;;;9.40;99.90;;;;;;5075453;28;20457;-62
2023/03/13 00:37:49;;;;;;;10.30;4.97;;;9.40;99.90;;;;;;5072852;28;20453;-61
2023/03/13 00:40:17;;;;;;;16.43;5.67;;;9.40;99.90;;;;;;5075676;28;20453;-61
2023/03/13 00:42:44;;;;;;;15.83;4.83;;;9.40;99.90;;;;;;5075380;28;20457;-61
2023/03/13 00:45:11;;;;;;;12.00;5.07;;;9.40;99.90;;;;;;5075444;28;20519;-61
2023/03/13 00:47:42;;;;;;;19.53;4.50;;;9.40;99.90;;;;;;5074871;28;20554;-63
2023/03/13 00:50:10;;;;;;;14.77;4.67;;;9.40;99.90;;;;;;5072828;28;20453;-62
2023/03/13 00:52:38;;;;;;;13.87;6.27;;;9.40;99.90;;;;;;5075138;28;20898;-62
2023/03/13 00:55:06;;;;;;;17.63;4.50;;;9.40;1.00;;;;;;5075622;28;20894;-63
2023/03/13 00:57:36;;;;;;;17.73;4.80;;;9.40;1.00;;;;;;5075123;28;20453;-63
2023/03/13 01:00:05;;;;;;;19.03;5.57;;;9.40;1.00;;;;;;5072849;28;20854;-63
2023/03/13 01:02:33;;;;;;;16.27;5.23;;;9.30;1.00;;;;;;5075659;28;20461;-62
2023/03/13 01:05:00;;;;;;;16.20;5.13;;;9.30;1.00;;;;;;5075479;28;20737;-63
2023/03/13 01:07:28;;;;;;;15.63;4.90;;;9.30;1.00;;;;;;5074870;28;20482;-62
2023/03/13 01:09:57;;;;;;;15.50;4.93;;;9.30;1.00;;;;;;5075085;28;20464;-60
2023/03/13 01:12:24;;;;;;;16.17;5.30;;;9.30;1.00;;;;;;5075337;28;20904;-62
2023/03/13 01:14:51;;;;;;;17.50;4.80;;;9.30;1.00;;;;;;5081514;28;20453;-61
2023/03/13 01:17:18;;;;;;;12.53;4.10;;;9.30;1.00;;;;;;5079541;28;20449;-61
2023/03/13 01:19:45;;;;;;;20.80;4.53;;;9.20;1.00;;;;;;5077883;28;21019;-61
2023/03/13 01:22:12;;;;;;;13.27;5.77;;;9.20;1.00;;;;;;5079510;28;20457;-62
2023/03/13 01:24:39;;;;;;;10.00;4.03;;;9.20;1.00;;;;;;5078185;28;20461;-61
2023/03/13 01:27:07;;;;;;;23.73;5.17;;;9.20;1.00;;;;;;5086255;28;20492;-61
2023/03/13 01:29:34;;;;;;;14.80;4.23;;;9.10;1.00;;;;;;5088087;28;20911;-61
2023/03/13 01:32:01;;;;;;;22.43;5.37;;;9.10;1.00;;;;;;5087632;28;20461;-60
2023/03/13 01:34:28;;;;;;;16.70;6.27;;;9.00;1.00;;;;;;5079850;28;20469;-59
2023/03/13 01:36:55;;;;;;;19.37;5.23;;;9.00;1.00;;;;;;5084814;28;20890;-60
2023/03/13 01:39:22;;;;;;;16.17;5.20;;;8.90;1.00;;;;;;5080021;28;20826;-63
2023/03/13 01:41:49;;;;;;;14.67;3.90;;;8.90;46.70;;;;;;5080264;28;20472;-62
2023/03/13 01:44:22;;;;;;;17.93;5.40;;;8.80;99.90;;;;;;5092201;28;20787;-62
2023/03/13 01:46:50;;;;;;;17.70;5.33;;;8.80;99.90;;;;;;5088191;28;20483;-62
2023/03/13 01:49:20;;;;;;;11.53;4.70;;;8.70;1.00;;;;;;5084775;28;20855;-63
2023/03/13 01:51:52;;;;;;;18.17;5.07;;;8.70;89.10;;;;;;5080689;28;20475;-64
2023/03/13 01:54:22;;;;;;;15.63;5.00;;;8.70;1.00;;;;;;5085472;28;20465;-62
2023/03/13 01:56:53;;;;;;;15.87;5.50;;;8.70;1.00;;;;;;5080676;28;20469;-62
2023/03/13 01:59:25;;;;;;;15.27;4.97;;;8.70;99.90;;;;;;5067705;28;20470;-63
2023/03/13 02:01:54;;;;;;;15.30;5.13;;;8.70;1.00;;;;;;5074993;28;20465;-63
2023/03/13 02:04:23;;;;;;;16.10;5.53;;;8.70;99.90;;;;;;5080094;28;20514;-63
2023/03/13 02:06:55;;;;;;;13.90;5.13;;;8.70;1.00;;;;;;5080418;28;20481;-65
2023/03/13 02:09:26;;;;;;;17.97;5.17;;;8.70;1.00;;;;;;5080150;28;20790;-63
2023/03/13 02:11:59;;;;;;;12.83;5.57;;;8.70;99.90;;;;;;5079653;28;20473;-64
2023/03/13 02:14:30;;;;;;;21.00;6.40;;;8.70;99.90;;;;;;5079902;28;20465;-64
2023/03/13 02:16:57;;;;;;;15.00;5.10;;;8.70;99.90;;;;;;5080298;28;20472;-64
2023/03/13 02:19:30;;;;;;;20.87;5.23;;;8.70;99.90;;;;;;5079981;28;20481;-64
2023/03/13 02:22:05;;;;;;;22.90;5.80;;;8.60;99.90;;;;;;5066281;28;20465;-65
2023/03/13 02:24:41;;;;;;;18.10;5.27;;;8.70;99.90;;;;;;5080035;28;20461;-62
2023/03/13 02:27:10;;;;;;;19.13;5.77;;;8.70;99.90;;;;;;5080301;28;20514;-65
2023/03/13 02:29:37;;;;;;;17.77;5.43;;;8.60;99.90;;;;;;5080122;28;20901;-65
2023/03/13 02:32:04;;;;;;;21.50;5.80;;;8.60;99.90;;;;;;5080218;28;20548;-64
2023/03/13 02:34:35;;;;;;;19.27;6.13;;;8.60;99.90;;;;;;5079789;28;20902;-65
2023/03/13 02:37:05;;;;;;;20.20;5.57;;;8.70;99.90;;;;;;5079936;28;20465;-64
2023/03/13 02:39:34;;;;;;;16.97;4.90;;;8.70;99.90;;;;;;5080218;28;20788;-65
2023/03/13 02:42:02;;;;;;;17.30;6.67;;;8.70;99.90;;;;;;5079379;28;20476;-65
2023/03/13 02:44:31;;;;;;;19.80;5.90;;;8.70;99.90;;;;;;5079869;28;20515;-64
2023/03/13 02:46:58;;;;;;;21.93;5.90;;;8.70;99.90;;;;;;5079253;28;20469;-64
2023/03/13 02:49:27;;;;;;;15.40;5.13;;;8.70;99.90;;;;;;5068310;28;20895;-65
2023/03/13 02:51:56;;;;;;;21.23;5.50;;;8.70;99.90;;;;;;5061790;28;20465;-64
2023/03/13 02:54:27;;;;;;;20.07;5.30;;;8.70;99.90;;;;;;5079068;28;20804;-64
2023/03/13 02:56:57;;;;;;;13.30;4.97;;;8.70;99.90;;;;;;5079818;28;20465;-64
2023/03/13 02:59:24;;;;;;;15.10;5.67;;;8.70;99.90;;;;;;5079959;28;20746;-64
2023/03/13 03:01:53;;;;;;;21.60;6.00;;;8.70;99.90;;;;;;5079305;28;20741;-66
2023/03/13 03:04:21;;;;;;;13.73;5.60;;;8.80;99.90;;;;;;5078521;28;20919;-66
2023/03/13 03:06:49;;;;;;;18.80;5.30;;;8.80;99.90;;;;;;5079579;28;20461;-66
2023/03/13 03:09:16;;;;;;;13.07;4.67;;;8.80;99.90;;;;;;5079431;28;20493;-65
2023/03/13 03:11:44;;;;;;;10.93;3.87;;;8.80;99.90;;;;;;5079041;28;20469;-65
2023/03/13 03:14:12;;;;;;;13.70;5.40;;;8.90;99.90;;;;;;5078453;28;20437;-64
2023/03/13 03:16:39;;;;;;;12.03;4.77;;;8.90;99.90;;;;;;5079384;28;20474;-65
2023/03/13 03:19:09;;;;;;;9.40;4.07;;;8.90;99.90;;;;;;5078898;28;20485;-66
2023/03/13 03:21:37;;;;;;;12.73;3.80;;;9.00;99.90;;;;;;5079337;28;20466;-64
2023/03/13 03:24:04;;;;;;;20.97;5.93;;;8.90;99.90;;;;;;5078274;28;20461;-67
2023/03/13 03:26:31;;;;;;;8.07;3.60;;;9.00;99.90;;;;;;5078416;28;20462;-65
2023/03/13 03:28:58;;;;;;;9.63;3.63;;;9.00;99.90;;;;;;5078496;28;20481;-67
2023/03/13 03:31:25;;;;;;;10.53;3.93;;;9.00;99.90;;;;;;5079021;28;20469;-65
2023/03/13 03:33:52;;;;;;;13.00;5.10;;;9.00;99.90;;;;;;5077446;28;20493;-66
2023/03/13 03:36:23;;;;;;;14.57;5.10;;;9.10;99.90;;;;;;5078183;28;20464;-64
2023/03/13 03:38:50;;;;;;;12.70;4.57;;;9.10;99.90;;;;;;5079108;28;20531;-63
2023/03/13 03:41:19;;;;;;;17.07;4.33;;;9.10;99.90;;;;;;5079728;28;20465;-64
2023/03/13 03:43:46;;;;;;;7.33;4.10;;;9.20;99.90;;;;;;5078264;28;20504;-62
2023/03/13 03:46:14;;;;;;;7.50;3.73;;;9.20;99.90;;;;;;5078238;28;20511;-62
2023/03/13 03:48:41;;;;;;;7.73;4.07;;;9.20;99.90;;;;;;5079252;28;20922;-62
2023/03/13 03:51:08;;;;;;;9.33;2.80;;;9.30;99.90;;;;;;5078584;28;21053;-62
2023/03/13 03:53:36;;;;;;;7.17;3.60;;;9.30;99.90;;;;;;5078989;28;20465;-62
2023/03/13 03:56:04;;;;;;;11.80;3.63;;;9.30;99.90;;;;;;5078200;28;20465;-63
2023/03/13 03:58:31;;;;;;;8.50;2.90;;;9.30;99.90;;;;;;5079247;28;20495;-62
2023/03/13 04:00:58;;;;;;;8.73;3.40;;;9.30;99.90;;;;;;5079052;28;20465;-63
2023/03/13 04:03:26;;;;;;;8.37;3.30;;;9.40;99.90;;;;;;5078893;28;20469;-62
2023/03/13 04:05:53;;;;;;;5.63;2.87;;;9.40;99.90;;;;;;5076701;28;20944;-62
2023/03/13 04:08:20;;;;;;;6.40;3.13;;;9.40;99.90;;;;;;5077150;28;20489;-64
2023/03/13 04:10:49;;;;;;;6.17;2.50;;;9.50;99.90;;;;;;5077596;28;20536;-62
2023/03/13 04:13:16;;;;;;;5.00;3.60;;;9.50;99.90;;;;;;5077856;28;20476;-62
2023/03/13 04:15:43;;;;;;;5.17;2.80;;;9.50;99.90;;;;;;5077168;28;20464;-62
2023/03/13 04:18:10;;;;;;;6.07;2.83;;;9.50;99.90;;;;;;5076258;28;20485;-62
2023/03/13 04:20:37;;;;;;;4.97;3.00;;;9.50;99.90;;;;;;5077049;28;20807;-63
2023/03/13 04:23:04;;;;;;;9.50;3.00;;;9.50;99.90;;;;;;5077504;28;20523;-64
2023/03/13 04:25:31;;;;;;;5.17;3.03;;;9.60;99.90;;;;;;5077598;28;20458;-63
2023/03/13 04:28:00;;;;;;;3.93;2.10;;;9.60;99.90;;;;;;5076880;28;20562;-63
2023/03/13 04:30:27;;;;;;;7.37;2.53;;;9.50;99.90;;;;;;5075948;28;20526;-63
2023/03/13 04:32:54;;;;;;;5.43;2.67;;;9.60;99.90;;;;;;5077419;28;20458;-64
2023/03/13 04:35:21;;;;;;;5.73;2.73;;;9.60;99.90;;;;;;5077580;28;20461;-65
2023/03/13 04:37:49;;;;;;;6.10;2.83;;;9.60;99.90;;;;;;5077001;28;20877;-65
2023/03/13 04:40:16;;;;;;;5.73;2.60;;;9.60;99.90;;;;;;5076064;28;20775;-66
2023/03/13 04:42:44;;;;;;;9.40;2.53;;;9.60;99.90;;;;;;5076248;28;20461;-64
2023/03/13 04:45:13;;;;;;;4.60;2.97;;;9.60;99.90;;;;;;5076139;28;20907;-64
2023/03/13 04:47:40;;;;;;;5.63;3.30;;;9.60;99.90;;;;;;5075604;28;20888;-66
2023/03/13 04:50:08;;;;;;;7.70;4.20;;;9.60;99.90;;;;;;5076432;28;20457;-62
2023/03/13 04:52:35;;;;;;;5.47;3.27;;;9.60;99.90;;;;;;5076984;28;20745;-64
2023/03/13 04:55:02;;;;;;;4.80;2.80;;;9.60;99.90;;;;;;5077160;28;20461;-62
2023/03/13 04:57:29;;;;;;;4.77;3.20;;;9.70;99.90;;;;;;5076707;28;20485;-63
2023/03/13 04:59:56;;;;;;;5.63;3.00;;;9.70;99.90;;;;;;5076384;28;20464;-63
2023/03/13 05:02:24;;;;;;;7.73;2.60;;;9.70;99.90;;;;;;5076398;28;20510;-63
2023/03/13 05:04:51;;;;;;;5.53;2.50;;;9.70;99.90;;;;;;5076930;28;20468;-64
2023/03/13 05:07:18;;;;;;;6.10;3.60;;;9.70;99.90;;;;;;5071406;28;21363;-61
2023/03/13 05:09:45;;;;;;;3.50;2.30;;;9.80;99.90;;;;;;5075948;28;20496;-62
2023/03/13 05:12:12;;;;;;;4.03;2.87;;;9.90;99.90;;;;;;5075410;28;20878;-61
2023/03/13 05:14:39;;;;;;;4.83;2.23;;;9.90;99.90;;;;;;5075122;28;20468;-62
2023/03/13 05:17:06;;;;;;;3.40;2.57;;;9.90;99.90;;;;;;5075751;28;20453;-63
2023/03/13 05:19:35;;;;;;;6.83;2.73;;;10.00;99.90;;;;;;5076074;28;20490;-63
2023/03/13 05:22:02;;;;;;;3.60;2.77;;;10.10;99.90;;;;;;5074950;28;20462;-63
2023/03/13 05:24:29;;;;;;;3.27;2.20;;;10.10;99.90;;;;;;5076254;28;20909;-60
2023/03/13 05:26:56;;;;;;;3.00;2.60;;;10.10;99.90;;;;;;5075784;28;20970;-61
2023/03/13 05:29:23;;;;;;;3.00;2.50;;;10.20;99.90;;;;;;5076524;28;20497;-62
2023/03/13 05:31:50;;;;;;;3.67;2.67;;;10.20;99.90;;;;;;5075781;28;20807;-62
2023/03/13 05:34:17;;;;;;;3.00;2.47;;;10.30;99.90;;;;;;5075333;28;20465;-63
2023/03/13 05:36:45;;;;;;;4.37;2.67;;;10.30;99.90;;;;;;5074860;28;20460;-61
2023/03/13 05:39:12;;;;;;;3.40;2.50;;;10.30;99.90;;;;;;5076611;28;20483;-56
2023/03/13 05:41:39;;;;;;;3.97;2.57;;;10.30;99.90;;;;;;5075645;28;20464;-60
2023/03/13 05:44:06;;;;;;;3.73;3.00;;;10.40;99.90;;;;;;5076005;28;20465;-62
2023/03/13 05:46:33;;;;;;;5.53;2.90;;;10.50;99.90;;;;;;5076156;28;20461;-60
2023/03/13 05:49:00;;;;;;;3.90;3.20;;;10.50;99.90;;;;;;5076601;28;20591;-61
2023/03/13 05:51:27;;;;;;;5.33;3.80;;;10.50;99.90;;;;;;5075565;28;20602;-61
2023/03/13 05:53:56;;;;;;;4.57;3.53;;;10.50;99.90;;;;;;5075324;28;20465;-61
2023/03/13 05:56:23;;;;;;;3.60;3.13;;;10.60;99.90;;;;;;5075650;28;20522;-62
2023/03/13 05:58:50;;;;;;;5.27;3.53;;;10.60;99.90;;;;;;5078924;28;20866;-63
2023/03/13 06:01:17;;;;;;;5.23;2.97;;;10.70;99.90;;;;;;5079468;28;20449;-61
2023/03/13 06:03:44;;;;;;;3.43;3.10;;;10.70;99.90;;;;;;5078172;28;20759;-62
2023/03/13 06:06:11;;;;;;;5.63;3.00;;;10.70;99.90;;;;;;5078510;28;20457;-62
2023/03/13 06:08:38;;;;;;;3.07;2.77;;;10.70;99.90;;;;;;5079207;28;20539;-61
2023/03/13 06:11:06;;;;;;;2.53;2.10;;;10.80;99.90;;;;;;5078535;28;20461;-61
2023/03/13 06:13:34;;;;;;;7.63;2.80;;;10.80;99.90;;;;;;5073625;28;20470;-58
2023/03/13 06:16:01;;;;;;;4.63;3.13;;;10.80;99.90;;;;;;5076524;28;20461;-62
2023/03/13 06:18:28;;;;;;;3.63;2.60;;;10.80;99.90;;;;;;5078668;28;20477;-61
2023/03/13 06:20:59;;;;;;;3.73;2.73;;;10.80;99.90;;;;;;5077959;28;20462;-60
2023/03/13 06:23:27;;;;;;;3.03;2.10;;;10.80;99.90;;;;;;5079629;28;20468;-62
2023/03/13 06:25:54;;;;;;;3.20;2.80;;;10.80;99.90;;;;;;5078899;28;20466;-62
2023/03/13 06:28:22;;;;;;;3.90;2.73;;;10.90;99.90;;;;;;5077407;28;20461;-62
2023/03/13 06:30:49;;;;;;;3.80;2.77;;;10.90;99.90;;;;;;5078808;28;20465;-62
2023/03/13 06:33:16;;;;;;;3.83;2.93;;;10.90;99.90;;;;;;5079221;28;20894;-62
2023/03/13 06:35:44;;;;;;;4.70;2.50;;;10.90;99.90;;;;;;5079339;28;20863;-61
2023/03/13 06:38:11;;;;;;;3.93;2.93;;;10.90;99.90;;;;;;5079184;28;20511;-63
2023/03/13 06:40:38;;;;;;;3.00;2.43;;;11.00;99.90;;;;;;5078559;28;20477;-63
2023/03/13 06:43:05;;;;;;;4.50;3.00;;;11.10;99.90;;;;;;5078791;28;20997;-61
2023/03/13 06:45:35;;;;;;;4.03;2.70;;;11.10;99.90;;;;;;5079019;28;20457;-60
2023/03/13 06:48:02;;;;;;;4.93;2.57;;;11.20;99.90;;;;;;5071786;28;20534;-58
2023/03/13 06:50:29;;;;;;;3.77;2.40;;;11.20;99.90;;;;;;5076903;28;20957;-60
2023/03/13 06:52:57;;;;;;;3.53;2.60;;;11.30;99.90;;;;;;5077478;28;20830;-64
2023/03/13 06:55:24;;;;;;;5.93;2.70;;;11.30;99.90;;;;;;5078112;28;20556;-61
2023/03/13 06:57:52;;;;;;;4.00;2.90;;;11.30;99.90;;;;;;5078705;28;20469;-61
2023/03/13 07:00:20;;;;;;;4.10;3.23;;;11.40;99.90;;;;;;5078505;28;20480;-62
2023/03/13 07:02:48;;;;;;;5.53;2.90;;;11.40;99.90;;;;;;5076991;28;20914;-60
2023/03/13 07:05:15;;;;;;;3.37;2.53;;;11.40;99.90;;;;;;5078234;28;20473;-60
2023/03/13 07:07:43;;;;;;;4.20;2.30;;;11.50;99.90;;;;;;5077812;28;20461;-61
2023/03/13 07:10:12;;;;;;;3.13;2.60;;;11.50;99.90;;;;;;5074219;28;20493;-61
2023/03/13 07:12:39;;;;;;;5.60;2.90;;;11.50;99.90;;;;;;5078495;28;20465;-63
2023/03/13 07:15:07;;;;;;;3.13;2.20;;;11.50;99.90;;;;;;5076856;28;20903;-62
2023/03/13 07:17:34;;;;;;;3.73;2.60;;;11.60;99.90;;;;;;5077893;28;20461;-63
2023/03/13 07:20:05;;;;;;;3.10;2.80;;;11.60;99.90;;;;;;5078106;28;20457;-64
2023/03/13 07:22:32;;;;;;;3.27;2.40;;;11.70;99.90;;;;;;5078603;28;20804;-63
2023/03/13 07:24:59;;;;;;;3.77;2.90;;;11.70;99.90;;;;;;5078001;28;20458;-61
2023/03/13 07:27:27;;;;;;;3.53;2.87;;;11.80;99.90;;;;;;5076739;28;20875;-63
2023/03/13 07:29:54;;;;;;;5.07;3.20;;;11.80;99.90;;;;;;5076354;28;20547;-61
2023/03/13 07:32:21;;;;;;;6.17;3.20;;;11.90;99.90;;;;;;5076081;28;20475;-62
2023/03/13 07:34:48;;;;;;;3.40;2.63;;;11.90;99.90;;;;;;5075072;28;20759;-63
2023/03/13 07:37:17;;;;;;;3.97;2.73;;;11.90;99.90;;;;;;5075682;28;20515;-63
2023/03/13 07:39:44;;;;;;;3.93;2.80;;;11.90;99.90;;;;;;5075777;28;20461;-64
2023/03/13 07:42:11;;;;;;;5.30;3.60;;;11.90;99.90;;;;;;5075844;28;20469;-63
2023/03/13 07:44:38;;;;;;;5.10;3.30;;;12.00;99.90;;;;;;5075944;28;20484;-63
2023/03/13 07:47:06;;;;;;;8.17;5.07;;;12.00;99.90;;;;;;5076504;28;20889;-63
2023/03/13 07:49:38;;;;;;;6.87;5.10;;;12.10;99.90;;;;;;5074852;28;20492;-63
2023/03/13 07:52:05;;;;;;;6.40;4.50;;;12.20;99.90;;;;;;5075297;28;20465;-64
2023/03/13 07:54:33;;;;;;;5.77;4.33;;;12.20;99.90;;;;;;5076228;28;20466;-61
2023/03/13 07:57:01;;;;;;;8.07;4.20;;;12.30;99.90;;;;;;5075691;28;20466;-63
2023/03/13 07:59:28;;;;;;;5.67;4.10;;;12.40;99.90;;;;;;5075741;28;20536;-63
2023/03/13 08:01:55;;;;;;;5.20;3.93;;;12.40;99.90;;;;;;5077803;28;20462;-63
2023/03/13 08:04:22;;;;;;;8.97;3.83;;;12.50;99.90;;;;;;5077579;28;20468;-64
2023/03/13 08:06:50;;;;;;;6.57;4.13;;;12.50;99.90;;;;;;5077074;28;20472;-64
2023/03/13 08:09:17;;;;;;;6.53;4.77;;;12.50;99.90;;;;;;5076092;28;20488;-64
2023/03/13 08:11:46;;;;;;;5.73;4.13;;;12.50;99.90;;;;;;5075883;28;20465;-63
2023/03/13 08:14:13;;;;;;;6.63;3.87;;;12.60;99.90;;;;;;5077463;28;20484;-62
2023/03/13 08:16:40;;;;;;;5.97;3.83;;;12.60;99.90;;;;;;5077080;28;20473;-63
2023/03/13 08:19:07;;;;;;;5.60;4.70;;;12.60;99.90;;;;;;5076813;28;20864;-63
2023/03/13 08:21:36;;;;;;;7.43;2.97;;;12.60;99.90;;;;;;5076806;28;20465;-63
2023/03/13 08:24:05;;;;;;;7.33;4.20;;;12.60;99.90;;;;;;5076263;28;20469;-63
2023/03/13 08:26:34;;;;;;;7.10;3.17;;;12.60;99.90;;;;;;5076901;28;20509;-63
2023/03/13 08:29:04;;;;;;;6.80;4.43;;;12.60;99.90;;;;;;5077308;28;20457;-63
2023/03/13 08:31:34;;;;;;;8.03;4.10;;;12.70;99.90;;;;;;5079073;28;20457;-63
2023/03/13 08:34:01;;;;;;;6.83;4.03;;;12.60;99.90;;;;;;5077478;28;20465;-63
2023/03/13 08:36:31;;;;;;;8.50;4.13;;;12.60;99.90;;;;;;5078171;28;20758;-63
2023/03/13 08:39:00;;;;;;;8.00;3.80;;;12.60;99.90;;;;;;5078547;28;20465;-64
2023/03/13 08:41:29;;;;;;;9.30;3.63;;;12.70;99.90;;;;;;5077636;28;20768;-64
2023/03/13 08:43:57;;;;;;;10.40;3.87;;;12.70;99.90;;;;;;5072784;28;20791;-63
2023/03/13 08:46:26;;;;;;;7.70;4.30;;;12.70;99.90;;;;;;5077602;28;20820;-63
2023/03/13 08:48:54;;;;;;;7.90;3.70;;;12.80;99.90;;;;;;5077970;28;20484;-63
2023/03/13 08:51:23;;;;;;;6.03;4.30;;;12.70;99.90;;;;;;5075004;28;20489;-64
2023/03/13 08:53:51;;;;;;;6.60;4.30;;;12.70;99.90;;;;;;5076333;28;20465;-63
2023/03/13 08:56:20;;;;;;;6.20;4.83;;;12.70;99.90;;;;;;5075913;28;20556;-63
2023/03/13 08:58:50;;;;;;;6.93;4.33;;;12.70;99.90;;;;;;5077273;28;20465;-64
2023/03/13 09:01:17;;;;;;;6.90;4.03;;;12.80;99.90;;;;;;5076153;28;20457;-63
2023/03/13 09:03:46;;;;;;;11.73;5.83;;;12.90;99.90;;;;;;5076150;28;20770;-64
2023/03/13 09:06:13;;;;;;;7.70;4.63;;;12.90;99.90;;;;;;5075660;28;20469;-65
2023/03/13 09:08:41;;;;;;;6.20;4.23;;;12.90;99.90;;;;;;5072897;28;20468;-64
2023/03/13 09:11:10;;;;;;;7.43;5.13;;;12.90;99.90;;;;;;5072987;28;20501;-64
2023/03/13 09:13:40;;;;;;;11.03;4.13;;;12.80;99.90;;;;;;5072598;28;20662;-64
2023/03/13 09:16:08;;;;;;;9.30;5.40;;;12.70;99.90;;;;;;5072142;28;20818;-66
2023/03/13 09:18:36;;;;;;;6.20;4.10;;;12.70;99.90;;;;;;5073097;28;20488;-65
2023/03/13 09:21:07;;;;;;;5.53;4.57;;;12.70;99.90;;;;;;5075134;28;20507;-65
2023/03/13 09:23:34;;;;;;;5.77;4.37;;;12.80;99.90;;;;;;5076412;28;20476;-64
2023/03/13 09:26:01;;;;;;;9.40;4.27;;;12.90;99.90;;;;;;5075685;28;20893;-64
2023/03/13 09:28:28;;;;;;;8.97;5.20;;;13.00;99.90;;;;;;5075351;28;21128;-64
2023/03/13 09:30:55;;;;;;;6.07;4.70;;;13.20;99.90;;;;;;5075294;28;20512;-63
2023/03/13 09:33:23;;;;;;;5.13;3.93;;;13.30;99.90;;;;;;5078111;28;20462;-64
2023/03/13 09:35:51;;;;;;;6.63;3.90;;;13.30;99.90;;;;;;5072522;28;20571;-65
2023/03/13 09:38:20;;;;;;;5.40;4.73;;;13.30;99.90;;;;;;5076659;28;20469;-65
2023/03/13 09:40:49;;;;;;;6.87;5.10;;;13.40;1.00;;;;;;5077036;28;20461;-64
2023/03/13 09:43:26;;;;;;;5.27;3.60;;;13.50;1.00;;;;;;5077274;28;20687;-64
2023/03/13 09:45:56;;;;;;;6.13;4.00;;;13.60;99.90;;;;;;5076122;28;20465;-64
2023/03/13 09:48:30;;;;;;;4.43;3.67;;;13.70;49.10;;;;;;5075969;28;20461;-64
2023/03/13 09:51:03;;;;;;;7.63;4.90;;;13.70;99.90;;;;;;5076187;28;20493;-63
2023/03/13 09:53:41;;;;;;;6.40;3.50;;;13.80;32.50;;;;;;5078171;28;20461;-63
2023/03/13 09:56:14;;;;;;;6.60;3.60;;;13.80;24.40;;;;;;5077851;28;20468;-65
2023/03/13 09:58:48;;;;;;;5.97;4.40;;;13.80;1.00;;;;;;5079120;28;20500;-63
2023/03/13 10:01:19;;;;;;;7.47;4.13;;;13.80;99.90;;;;;;5080258;28;20848;-64
2023/03/13 10:03:57;;;;;;;6.17;4.30;;;13.70;1.00;;;;;;5080131;28;20460;-63
2023/03/13 10:06:27;;;;;;;7.30;3.63;;;13.70;1.00;;;;;;5079937;28;20472;-64
2023/03/13 10:09:00;;;;;;;15.20;4.27;;;13.70;99.90;;;;;;5079057;28;20474;-64
2023/03/13 10:11:30;;;;;;;8.27;4.13;;;13.70;99.90;;;;;;5077595;28;20496;-64
2023/03/13 10:14:03;;;;;;;4.40;3.03;;;13.60;1.00;;;;;;5078939;28;20877;-64
2023/03/13 10:16:35;;;;;;;4.60;3.40;;;13.50;99.90;;;;;;5080163;28;20472;-64
2023/03/13 10:19:11;;;;;;;4.10;3.23;;;13.50;1.00;;;;;;5079653;28;20495;-62
2023/03/13 10:21:40;;;;;;;5.13;3.43;;;13.70;92.40;;;;;;5078250;28;20457;-64
2023/03/13 10:24:17;;;;;;;6.53;4.00;;;13.90;1.00;;;;;;5079773;28;20461;-63
2023/03/13 10:26:44;;;;;;;5.00;3.00;;;14.20;1.00;;;;;;5079657;28;20457;-63
2023/03/13 10:29:23;;;;;;;7.47;2.57;;;14.40;99.90;;;;;;5079412;28;20465;-63
2023/03/13 10:31:56;;;;;;;4.13;3.03;;;14.70;99.90;;;;;;5079162;28;20973;-63
2023/03/13 10:34:24;;;;;;;5.40;2.80;;;15.10;99.90;;;;;;5079877;28;20548;-63
2023/03/13 10:36:56;;;;;;;3.73;3.00;;;15.50;72.80;;;;;;5078125;28;20816;-64
2023/03/13 10:39:26;;;;;;;8.30;3.00;;;15.50;26.30;;;;;;5079646;28;20522;-63
2023/03/13 10:41:59;;;;;;;5.10;2.80;;;15.40;1.00;;;;;;5079765;28;20487;-63
2023/03/13 10:44:32;;;;;;;5.77;2.80;;;15.20;1.00;;;;;;5076137;28;20837;-63
2023/03/13 10:47:01;;;;;;;5.53;3.00;;;15.10;4.10;;;;;;5078215;28;20749;-64
2023/03/13 10:49:30;;;;;;;3.10;2.47;;;15.10;1.00;;;;;;5076650;28;20477;-63
2023/03/13 10:52:00;;;;;;;4.97;2.53;;;15.20;1.00;;;;;;5077274;28;20798;-64
2023/03/13 10:54:29;;;;;;;3.60;2.80;;;15.20;1.00;;;;;;5079132;28;20457;-63
2023/03/13 10:57:19;;;;;;;4.80;3.10;;;15.10;1.00;;;;;;5076507;28;20890;-64
2023/03/13 10:59:49;;;;;;;4.53;2.83;;;15.00;1.00;;;;;;5077857;28;20526;-63
2023/03/13 11:02:25;;;;;;;4.60;2.50;;;14.90;9.80;;;;;;5078121;28;20457;-63
2023/03/13 11:04:53;;;;;;;3.93;3.40;;;14.90;1.00;;;;;;5074179;28;20465;-64
2023/03/13 11:07:28;;;;;;;4.60;2.57;;;15.00;1.00;;;;;;5076950;28;20619;-64
2023/03/13 11:10:02;;;;;;;3.53;3.00;;;15.00;1.00;;;;;;5075635;28;20473;-65
2023/03/13 11:12:35;;;;;;;6.63;3.53;;;15.10;1.00;;;;;;5076069;28;20461;-64
2023/03/13 11:15:13;;;;;;;3.73;2.80;;;15.20;1.00;;;;;;5074403;28;20461;-65
2023/03/13 11:17:40;;;;;;;2.97;2.30;;;15.20;1.00;;;;;;5056889;28;20458;-64
2023/03/13 11:20:17;;;;;;;5.83;3.60;;;15.20;1.00;;;;;;5076628;28;20879;-63
2023/03/13 11:22:55;;;;;;;5.53;2.97;;;15.10;1.00;;;;;;5077418;28;20939;-63
2023/03/13 11:25:32;;;;;;;4.73;3.33;;;15.10;1.00;;;;;;5078674;28;20457;-64
2023/03/13 11:28:24;;;;;;;4.33;3.00;;;15.00;1.00;;;;;;5077919;28;20522;-64
2023/03/13 11:31:14;;;;;;;7.23;2.50;;;15.00;1.00;;;;;;5077802;28;20833;-64
2023/03/13 11:33:52;;;;;;;8.73;3.50;;;15.00;1.00;;;;;;5077808;28;20488;-63
2023/03/13 11:36:26;;;;;;;3.17;2.50;;;15.10;1.00;;;;;;5077492;28;20489;-63
2023/03/13 11:38:59;;;;;;;3.10;2.10;;;15.10;1.00;;;;;;5078050;28;20795;-62
2023/03/13 11:41:42;;;;;;;2.67;2.20;;;15.10;1.00;;;;;;5078201;28;20457;-60
2023/03/13 11:44:29;;;;;;;3.90;2.67;;;15.10;1.00;;;;;;5078267;28;20471;-63
2023/03/13 11:47:14;;;;;;;5.10;3.47;;;15.00;1.00;;;;;;5076950;28;20469;-63
2023/03/13 11:49:57;;;;;;;4.17;2.60;;;15.10;1.00;;;;;;5077654;28;20461;-63
2023/03/13 11:52:58;;;;;;;4.80;3.13;;;15.30;1.00;;;;;;5076631;28;20859;-63
2023/03/13 11:55:46;;;;;;;4.50;2.80;;;15.20;1.00;;;;;;5043410;28;20489;-63
2023/03/13 11:58:38;;;;;;;3.80;2.90;;;15.20;1.00;;;;;;5078029;28;20461;-64
2023/03/13 12:01:10;;;;;;;4.93;2.93;;;15.20;1.00;;;;;;5076657;28;21001;-64
2023/03/13 12:03:43;;;;;;;3.23;2.87;;;15.20;1.00;;;;;;5077139;28;20507;-63
2023/03/13 12:06:22;;;;;;;3.93;3.10;;;15.20;1.00;;;;;;5076875;28;20839;-64
2023/03/13 12:08:56;;;;;;;3.80;2.73;;;15.10;1.00;;;;;;5069239;28;20465;-64
2023/03/13 12:11:27;;;;;;;4.30;2.60;;;15.00;1.00;;;;;;5077133;28;20493;-63
2023/03/13 12:14:02;;;;;;;5.10;2.60;;;15.40;1.00;;;;;;5077863;28;20472;-64
2023/03/13 12:16:41;;;;;;;2.83;2.03;;;15.70;1.00;;;;;;5076998;28;20521;-64
2023/03/13 12:19:17;;;;;;;5.70;3.03;;;15.90;1.00;;;;;;5062599;28;20481;-63
2023/03/13 12:21:51;;;;;;;4.60;2.43;;;16.30;1.00;;;;;;5072274;28;20460;-65
2023/03/13 12:24:26;;;;;;;6.43;2.43;;;16.90;1.00;;;;;;5077703;28;20775;-63
2023/03/13 12:26:57;;;;;;;2.43;1.80;;;17.10;1.00;;;;;;5077279;28;20488;-64
2023/03/13 12:29:37;;;;;;;2.93;2.23;;;16.80;1.00;;;;;;5077510;28;20465;-63
2023/03/13 12:32:12;;;;;;;7.27;3.27;;;16.40;1.00;;;;;;5077393;28;20493;-63
2023/03/13 12:34:52;;;;;;;3.03;2.73;;;16.30;1.00;;;;;;5076052;28;20754;-63
2023/03/13 12:37:24;;;;;;;2.37;1.73;;;16.00;1.00;;;;;;5058975;28;20453;-63
2023/03/13 12:39:57;;;;;;;5.23;2.37;;;15.90;1.00;;;;;;5076103;28;20526;-64
2023/03/13 12:42:40;;;;;;;3.80;2.30;;;15.80;1.00;;;;;;5076411;28;20890;-63
2023/03/13 12:45:15;;;;;;;4.37;2.33;;;15.60;1.00;;;;;;5075570;28;20468;-64
2023/03/13 12:48:07;;;;;;;4.97;2.80;;;15.60;1.00;;;;;;5076290;28;20453;-64
2023/03/13 12:50:43;;;;;;;4.07;2.10;;;15.70;1.00;;;;;;5062592;28;20554;-63
2023/03/13 12:53:41;;;;;;;3.17;1.90;;;15.80;1.00;;;;;;5076356;28;20465;-63
2023/03/13 12:56:31;;;;;;;4.10;2.10;;;16.00;1.00;;;;;;5077106;28;20464;-64
2023/03/13 12:59:04;;;;;;;4.83;2.00;;;15.80;1.00;;;;;;5076218;28;20511;-64
2023/03/13 13:01:36;;;;;;;2.10;1.50;;;15.80;1.00;;;;;;5075736;28;20468;-63
2023/03/13 13:04:07;;;;;;;3.03;2.00;;;15.80;1.00;;;;;;5076678;28;20469;-64